This is the latest recevied weather packets stored in our database for station/object KI5NXU. If no packets are shown the sender has not sent any weather packets the latest 10 day(s).
| Time | Temp. | Humidity | Pressure | Rain* | Wind** | Luminosity | Snow |
|---|---|---|---|---|---|---|---|
| 1777499635 | 16.67° C | 76% | 1013.6 hPa | 0 mm | - | 51 W/m² | - |
| 1777498726 | 16.67° C | 76% | 1013.4 hPa | 0 mm | - | 101 W/m² | - |
| 1777498423 | 16.67° C | 76% | 1013.5 hPa | 0 mm | - | 104 W/m² | - |
| 1777498120 | 16.67° C | 75% | 1013.7 hPa | 0 mm | - | 74 W/m² | - |
| 1777497817 | 16.67° C | 74% | 1013.4 hPa | 0 mm | - | 88 W/m² | - |
| 1777497513 | 16.67° C | 74% | 1013.2 hPa | 0 mm | - | 115 W/m² | - |
| 1777497210 | 17.22° C | 74% | 1013.3 hPa | 0 mm | - | 115 W/m² | - |
| 1777496906 | 16.67° C | 74% | 1013 hPa | 0 mm | - | 115 W/m² | - |
| 1777496604 | 16.67° C | 73% | 1013.3 hPa | 0 mm | - | 118 W/m² | - |
| 1777496300 | 17.22° C | 73% | 1013.6 hPa | 0 mm | - | 116 W/m² | - |
| 1777495692 | 17.22° C | 73% | 1012.7 hPa | 0 mm | - | 171 W/m² | - |
| 1777495085 | 16.67° C | 74% | 1013.2 hPa | 0 mm | - | 160 W/m² | - |
| 1777494782 | 17.22° C | 75% | 1013.4 hPa | 0 mm | - | 132 W/m² | - |
| 1777494479 | 17.22° C | 75% | 1013.2 hPa | 0 mm | - | 196 W/m² | - |
| 1777494176 | 17.22° C | 73% | 1013.5 hPa | 0 mm | - | 182 W/m² | - |
| 1777493873 | 17.22° C | 75% | 1013.4 hPa | 0 mm | - | 165 W/m² | - |
| 1777493571 | 17.22° C | 75% | 1013.7 hPa | 0 mm | - | 125 W/m² | - |
| 1777492965 | 17.22° C | 75% | 1013.9 hPa | 0 mm | - | 105 W/m² | - |
| 1777492362 | 17.22° C | 73% | 1014 hPa | 0 mm | - | 169 W/m² | - |
| 1777491453 | 17.22° C | 73% | 1014.2 hPa | 0 mm | - | 235 W/m² | - |
| 1777491150 | 17.22° C | 73% | 1014.2 hPa | 0 mm | - | 201 W/m² | - |
| 1777490845 | 17.22° C | 73% | 1014.4 hPa | 0 mm | - | 176 W/m² | - |
| 1777490542 | 17.22° C | 74% | 1014.3 hPa | 0 mm | - | 168 W/m² | - |
| 1777490238 | 17.78° C | 72% | 1014.1 hPa | 0 mm | - | 234 W/m² | - |
| 1777489936 | 17.22° C | 72% | 1014.1 hPa | 0 mm | - | 273 W/m² | - |
* Rain latest hour (hover to see other rain measurements)
** Current wind speed in m/s (hover to see current wind gust speed)